sensor_id;sensor_type;location;lat;lon;timestamp;temperature;humidity
16060;DHT22;8134;49.552;7.632;2023-04-15T06:36:22;4.90;99.90
16060;DHT22;8134;49.552;7.632;2023-04-15T06:38:48;4.90;99.90
16060;DHT22;8134;49.552;7.632;2023-04-15T06:41:13;5.00;99.90
16060;DHT22;8134;49.552;7.632;2023-04-15T06:43:39;5.00;99.90
16060;DHT22;8134;49.552;7.632;2023-04-15T06:46:04;5.10;99.90
16060;DHT22;8134;49.552;7.632;2023-04-15T06:48:30;5.20;99.90
16060;DHT22;8134;49.552;7.632;2023-04-15T06:50:56;5.30;99.90
16060;DHT22;8134;49.552;7.632;2023-04-15T06:53:23;5.50;99.90
16060;DHT22;8134;49.552;7.632;2023-04-15T06:55:49;5.70;99.90
16060;DHT22;8134;49.552;7.632;2023-04-15T06:58:14;5.80;99.90
16060;DHT22;8134;49.552;7.632;2023-04-15T07:00:40;5.90;99.90
16060;DHT22;8134;49.552;7.632;2023-04-15T07:03:06;6.20;99.90
16060;DHT22;8134;49.552;7.632;2023-04-15T07:05:34;6.10;99.90
16060;DHT22;8134;49.552;7.632;2023-04-15T07:07:59;6.20;99.90
16060;DHT22;8134;49.552;7.632;2023-04-15T07:10:25;6.40;99.90
16060;DHT22;8134;49.552;7.632;2023-04-15T07:12:50;6.50;99.90
16060;DHT22;8134;49.552;7.632;2023-04-15T07:15:16;6.60;99.90
16060;DHT22;8134;49.552;7.632;2023-04-15T07:17:42;6.80;99.90
16060;DHT22;8134;49.552;7.632;2023-04-15T07:20:07;6.90;99.90
16060;DHT22;8134;49.552;7.632;2023-04-15T07:22:33;7.00;99.90
16060;DHT22;8134;49.552;7.632;2023-04-15T07:24:59;7.10;99.90
16060;DHT22;8134;49.552;7.632;2023-04-15T07:27:24;7.30;99.90
16060;DHT22;8134;49.552;7.632;2023-04-15T07:29:50;7.30;99.90
16060;DHT22;8134;49.552;7.632;2023-04-15T07:32:16;7.40;99.90
16060;DHT22;8134;49.552;7.632;2023-04-15T07:34:42;7.50;99.90
16060;DHT22;8134;49.552;7.632;2023-04-15T07:37:08;7.50;99.90
16060;DHT22;8134;49.552;7.632;2023-04-15T07:39:34;7.50;99.90
16060;DHT22;8134;49.552;7.632;2023-04-15T07:41:59;7.60;99.90
16060;DHT22;8134;49.552;7.632;2023-04-15T07:44:25;7.70;99.90
16060;DHT22;8134;49.552;7.632;2023-04-15T07:46:51;7.80;99.90
16060;DHT22;8134;49.552;7.632;2023-04-15T07:49:16;7.90;99.90
16060;DHT22;8134;49.552;7.632;2023-04-15T07:51:43;8.00;99.90
16060;DHT22;8134;49.552;7.632;2023-04-15T07:54:09;8.30;99.90
16060;DHT22;8134;49.552;7.632;2023-04-15T07:56:34;8.30;99.90
16060;DHT22;8134;49.552;7.632;2023-04-15T07:59:00;8.50;99.90
16060;DHT22;8134;49.552;7.632;2023-04-15T08:01:30;8.50;99.90
16060;DHT22;8134;49.552;7.632;2023-04-15T08:03:55;8.60;99.90
16060;DHT22;8134;49.552;7.632;2023-04-15T08:06:21;8.80;99.90
16060;DHT22;8134;49.552;7.632;2023-04-15T08:08:47;9.00;99.90
16060;DHT22;8134;49.552;7.632;2023-04-15T08:11:12;9.00;99.90
16060;DHT22;8134;49.552;7.632;2023-04-15T08:13:38;9.20;99.90
16060;DHT22;8134;49.552;7.632;2023-04-15T08:19:02;9.40;99.90
16060;DHT22;8134;49.552;7.632;2023-04-15T08:21:28;9.60;99.90
16060;DHT22;8134;49.552;7.632;2023-04-15T08:23:55;9.70;99.90
16060;DHT22;8134;49.552;7.632;2023-04-15T08:26:20;9.80;99.90
16060;DHT22;8134;49.552;7.632;2023-04-15T08:28:46;9.80;99.90
16060;DHT22;8134;49.552;7.632;2023-04-15T08:31:13;9.80;99.90
16060;DHT22;8134;49.552;7.632;2023-04-15T08:33:39;10.00;99.90
16060;DHT22;8134;49.552;7.632;2023-04-15T08:36:04;10.20;99.90
16060;DHT22;8134;49.552;7.632;2023-04-15T08:38:30;10.20;99.90
16060;DHT22;8134;49.552;7.632;2023-04-15T08:40:56;10.30;99.90
16060;DHT22;8134;49.552;7.632;2023-04-15T08:43:23;10.40;99.90
16060;DHT22;8134;49.552;7.632;2023-04-15T08:45:53;10.60;99.90
16060;DHT22;8134;49.552;7.632;2023-04-15T08:48:18;10.60;99.90
16060;DHT22;8134;49.552;7.632;2023-04-15T08:50:44;10.70;99.90
16060;DHT22;8134;49.552;7.632;2023-04-15T08:53:10;10.80;99.90
16060;DHT22;8134;49.552;7.632;2023-04-15T08:55:38;10.90;99.90
16060;DHT22;8134;49.552;7.632;2023-04-15T08:58:04;10.90;99.90
16060;DHT22;8134;49.552;7.632;2023-04-15T09:00:31;11.00;99.90
16060;DHT22;8134;49.552;7.632;2023-04-15T09:02:57;11.00;99.90
16060;DHT22;8134;49.552;7.632;2023-04-15T09:05:23;11.10;99.90
16060;DHT22;8134;49.552;7.632;2023-04-15T09:07:52;11.20;99.90
16060;DHT22;8134;49.552;7.632;2023-04-15T09:10:17;11.20;99.90
16060;DHT22;8134;49.552;7.632;2023-04-15T09:12:42;11.20;99.90
16060;DHT22;8134;49.552;7.632;2023-04-15T09:15:11;11.20;99.90
16060;DHT22;8134;49.552;7.632;2023-04-15T09:17:44;11.40;99.90
16060;DHT22;8134;49.552;7.632;2023-04-15T09:20:14;11.40;99.90
16060;DHT22;8134;49.552;7.632;2023-04-15T09:22:40;11.50;99.90
16060;DHT22;8134;49.552;7.632;2023-04-15T09:27:50;11.70;99.90
16060;DHT22;8134;49.552;7.632;2023-04-15T09:30:15;11.80;99.10
16060;DHT22;8134;49.552;7.632;2023-04-15T09:32:51;11.90;99.90
16060;DHT22;8134;49.552;7.632;2023-04-15T09:35:17;12.00;98.60
16060;DHT22;8134;49.552;7.632;2023-04-15T09:37:43;12.20;97.70
16060;DHT22;8134;49.552;7.632;2023-04-15T09:40:09;12.30;96.80
16060;DHT22;8134;49.552;7.632;2023-04-15T09:42:35;12.40;96.20
16060;DHT22;8134;49.552;7.632;2023-04-15T09:45:10;12.40;97.00
16060;DHT22;8134;49.552;7.632;2023-04-15T09:47:36;12.50;98.40
16060;DHT22;8134;49.552;7.632;2023-04-15T09:50:02;12.50;96.00
16060;DHT22;8134;49.552;7.632;2023-04-15T09:52:27;12.60;96.30
16060;DHT22;8134;49.552;7.632;2023-04-15T09:54:53;12.70;96.10
16060;DHT22;8134;49.552;7.632;2023-04-15T09:57:22;12.80;96.40
16060;DHT22;8134;49.552;7.632;2023-04-15T09:59:50;12.90;96.70
16060;DHT22;8134;49.552;7.632;2023-04-15T10:02:17;13.00;96.00
16060;DHT22;8134;49.552;7.632;2023-04-15T10:04:43;13.10;93.00
16060;DHT22;8134;49.552;7.632;2023-04-15T10:07:08;13.20;95.30
16060;DHT22;8134;49.552;7.632;2023-04-15T10:09:37;13.20;94.40
16060;DHT22;8134;49.552;7.632;2023-04-15T10:12:04;13.30;94.40
16060;DHT22;8134;49.552;7.632;2023-04-15T10:14:35;13.40;93.50
16060;DHT22;8134;49.552;7.632;2023-04-15T10:17:03;13.50;93.70
16060;DHT22;8134;49.552;7.632;2023-04-15T10:19:32;13.50;94.10
16060;DHT22;8134;49.552;7.632;2023-04-15T10:21:58;13.50;94.20
16060;DHT22;8134;49.552;7.632;2023-04-15T10:24:23;13.50;93.30
16060;DHT22;8134;49.552;7.632;2023-04-15T10:26:50;13.50;93.70
16060;DHT22;8134;49.552;7.632;2023-04-15T10:29:15;13.50;94.10
16060;DHT22;8134;49.552;7.632;2023-04-15T10:31:41;13.40;94.40
16060;DHT22;8134;49.552;7.632;2023-04-15T10:34:07;13.40;93.20
16060;DHT22;8134;49.552;7.632;2023-04-15T10:36:33;13.40;93.40
16060;DHT22;8134;49.552;7.632;2023-04-15T10:38:59;13.50;93.10
16060;DHT22;8134;49.552;7.632;2023-04-15T10:41:26;13.50;92.90
16060;DHT22;8134;49.552;7.632;2023-04-15T10:43:53;13.60;92.70
16060;DHT22;8134;49.552;7.632;2023-04-15T10:46:20;13.60;92.60
16060;DHT22;8134;49.552;7.632;2023-04-15T10:48:47;13.70;91.80
16060;DHT22;8134;49.552;7.632;2023-04-15T10:51:13;13.70;91.40
16060;DHT22;8134;49.552;7.632;2023-04-15T10:53:38;13.70;90.50
16060;DHT22;8134;49.552;7.632;2023-04-15T10:56:06;13.80;91.10
16060;DHT22;8134;49.552;7.632;2023-04-15T10:58:41;13.80;90.70
16060;DHT22;8134;49.552;7.632;2023-04-15T11:01:07;13.80;90.90
16060;DHT22;8134;49.552;7.632;2023-04-15T11:03:37;13.90;90.00
16060;DHT22;8134;49.552;7.632;2023-04-15T11:06:03;13.90;90.50
16060;DHT22;8134;49.552;7.632;2023-04-15T11:11:14;14.00;91.20
16060;DHT22;8134;49.552;7.632;2023-04-15T11:13:46;14.00;90.70
16060;DHT22;8134;49.552;7.632;2023-04-15T11:16:12;14.10;90.50
16060;DHT22;8134;49.552;7.632;2023-04-15T11:18:38;14.10;90.60
16060;DHT22;8134;49.552;7.632;2023-04-15T11:21:04;14.10;91.10
16060;DHT22;8134;49.552;7.632;2023-04-15T11:23:31;14.10;90.30
16060;DHT22;8134;49.552;7.632;2023-04-15T11:25:58;14.10;90.80
16060;DHT22;8134;49.552;7.632;2023-04-15T11:28:25;14.10;91.70
16060;DHT22;8134;49.552;7.632;2023-04-15T11:30:51;14.10;90.20
16060;DHT22;8134;49.552;7.632;2023-04-15T11:33:16;14.10;88.60
16060;DHT22;8134;49.552;7.632;2023-04-15T11:35:42;14.20;88.60
16060;DHT22;8134;49.552;7.632;2023-04-15T11:38:09;14.20;89.10
16060;DHT22;8134;49.552;7.632;2023-04-15T11:40:35;14.30;83.00
16060;DHT22;8134;49.552;7.632;2023-04-15T11:45:36;14.40;86.40
16060;DHT22;8134;49.552;7.632;2023-04-15T11:48:09;14.40;82.40
16060;DHT22;8134;49.552;7.632;2023-04-15T11:50:35;14.50;80.80
16060;DHT22;8134;49.552;7.632;2023-04-15T11:53:01;14.50;82.70
16060;DHT22;8134;49.552;7.632;2023-04-15T11:55:30;14.50;78.90
16060;DHT22;8134;49.552;7.632;2023-04-15T12:00:32;14.70;80.90
16060;DHT22;8134;49.552;7.632;2023-04-15T12:03:13;14.80;80.40
16060;DHT22;8134;49.552;7.632;2023-04-15T12:06:01;14.70;81.00
16060;DHT22;8134;49.552;7.632;2023-04-15T12:08:46;14.80;81.30
16060;DHT22;8134;49.552;7.632;2023-04-15T12:11:12;14.80;80.20
16060;DHT22;8134;49.552;7.632;2023-04-15T12:13:41;14.80;80.60
16060;DHT22;8134;49.552;7.632;2023-04-15T12:16:07;14.80;82.50
16060;DHT22;8134;49.552;7.632;2023-04-15T12:18:33;14.60;82.40
16060;DHT22;8134;49.552;7.632;2023-04-15T12:21:03;14.70;81.40
16060;DHT22;8134;49.552;7.632;2023-04-15T12:23:29;14.80;83.20
16060;DHT22;8134;49.552;7.632;2023-04-15T12:25:55;14.80;82.10
16060;DHT22;8134;49.552;7.632;2023-04-15T12:28:21;14.90;81.20
16060;DHT22;8134;49.552;7.632;2023-04-15T12:30:49;14.90;83.40
16060;DHT22;8134;49.552;7.632;2023-04-15T12:33:18;15.00;82.30
16060;DHT22;8134;49.552;7.632;2023-04-15T12:35:43;15.10;81.40
16060;DHT22;8134;49.552;7.632;2023-04-15T12:38:09;15.20;81.20
16060;DHT22;8134;49.552;7.632;2023-04-15T12:40:35;15.40;82.10
16060;DHT22;8134;49.552;7.632;2023-04-15T12:43:00;15.50;81.50
16060;DHT22;8134;49.552;7.632;2023-04-15T12:45:26;15.50;81.30
16060;DHT22;8134;49.552;7.632;2023-04-15T12:47:51;15.50;80.80
16060;DHT22;8134;49.552;7.632;2023-04-15T12:50:16;15.40;79.70
16060;DHT22;8134;49.552;7.632;2023-04-15T12:52:42;15.40;80.80
16060;DHT22;8134;49.552;7.632;2023-04-15T12:55:08;15.20;74.70
16060;DHT22;8134;49.552;7.632;2023-04-15T12:57:33;15.20;78.90
16060;DHT22;8134;49.552;7.632;2023-04-15T12:59:59;15.30;79.70
16060;DHT22;8134;49.552;7.632;2023-04-15T13:02:24;15.30;78.10
16060;DHT22;8134;49.552;7.632;2023-04-15T13:04:52;15.40;78.50
16060;DHT22;8134;49.552;7.632;2023-04-15T13:07:18;15.50;77.70
16060;DHT22;8134;49.552;7.632;2023-04-15T13:09:43;15.60;74.70
16060;DHT22;8134;49.552;7.632;2023-04-15T13:12:09;15.70;75.80
16060;DHT22;8134;49.552;7.632;2023-04-15T13:14:35;15.80;74.20
16060;DHT22;8134;49.552;7.632;2023-04-15T13:17:01;16.00;73.90
16060;DHT22;8134;49.552;7.632;2023-04-15T13:19:28;16.00;76.70
16060;DHT22;8134;49.552;7.632;2023-04-15T13:21:53;16.20;76.10
16060;DHT22;8134;49.552;7.632;2023-04-15T13:24:19;16.30;75.00
16060;DHT22;8134;49.552;7.632;2023-04-15T13:26:45;16.40;74.70
16060;DHT22;8134;49.552;7.632;2023-04-15T13:29:10;16.30;72.60
16060;DHT22;8134;49.552;7.632;2023-04-15T13:31:37;16.00;74.30
16060;DHT22;8134;49.552;7.632;2023-04-15T13:34:03;15.60;75.50
16060;DHT22;8134;49.552;7.632;2023-04-15T13:36:28;15.30;76.90
16060;DHT22;8134;49.552;7.632;2023-04-15T13:38:54;15.20;77.30
16060;DHT22;8134;49.552;7.632;2023-04-15T13:41:20;15.10;77.90
16060;DHT22;8134;49.552;7.632;2023-04-15T13:43:45;15.10;78.40
16060;DHT22;8134;49.552;7.632;2023-04-15T13:46:11;15.20;81.20
16060;DHT22;8134;49.552;7.632;2023-04-15T13:48:36;15.10;78.70
16060;DHT22;8134;49.552;7.632;2023-04-15T13:51:02;15.00;78.90
16060;DHT22;8134;49.552;7.632;2023-04-15T13:53:27;15.00;81.00
16060;DHT22;8134;49.552;7.632;2023-04-15T13:55:55;14.90;80.10
16060;DHT22;8134;49.552;7.632;2023-04-15T13:58:20;14.90;79.20
16060;DHT22;8134;49.552;7.632;2023-04-15T14:00:46;14.80;79.50
16060;DHT22;8134;49.552;7.632;2023-04-15T14:03:11;14.90;79.90
16060;DHT22;8134;49.552;7.632;2023-04-15T14:05:37;14.90;80.60
16060;DHT22;8134;49.552;7.632;2023-04-15T14:08:02;15.00;80.20
16060;DHT22;8134;49.552;7.632;2023-04-15T14:10:28;15.20;83.20
16060;DHT22;8134;49.552;7.632;2023-04-15T14:12:53;15.20;79.80
16060;DHT22;8134;49.552;7.632;2023-04-15T14:15:19;15.20;81.00
16060;DHT22;8134;49.552;7.632;2023-04-15T14:17:45;15.00;81.00
16060;DHT22;8134;49.552;7.632;2023-04-15T14:20:10;15.00;79.60
16060;DHT22;8134;49.552;7.632;2023-04-15T14:22:36;14.90;81.70
16060;DHT22;8134;49.552;7.632;2023-04-15T14:25:01;14.80;81.10
16060;DHT22;8134;49.552;7.632;2023-04-15T14:27:27;14.80;82.00
16060;DHT22;8134;49.552;7.632;2023-04-15T14:29:53;14.80;84.10
16060;DHT22;8134;49.552;7.632;2023-04-15T14:32:18;14.80;82.40
16060;DHT22;8134;49.552;7.632;2023-04-15T14:34:44;14.70;82.40
16060;DHT22;8134;49.552;7.632;2023-04-15T14:37:09;14.80;81.80
16060;DHT22;8134;49.552;7.632;2023-04-15T14:39:35;14.70;83.10
16060;DHT22;8134;49.552;7.632;2023-04-15T14:42:00;14.70;82.50
16060;DHT22;8134;49.552;7.632;2023-04-15T14:44:26;14.80;84.60
16060;DHT22;8134;49.552;7.632;2023-04-15T14:46:52;14.80;84.00
16060;DHT22;8134;49.552;7.632;2023-04-15T14:49:18;14.70;83.20
16060;DHT22;8134;49.552;7.632;2023-04-15T14:51:43;14.60;83.40
16060;DHT22;8134;49.552;7.632;2023-04-15T14:54:10;14.50;84.30
16060;DHT22;8134;49.552;7.632;2023-04-15T14:56:36;14.50;84.60
16060;DHT22;8134;49.552;7.632;2023-04-15T14:59:01;14.50;84.70
16060;DHT22;8134;49.552;7.632;2023-04-15T15:01:27;14.30;85.60
16060;DHT22;8134;49.552;7.632;2023-04-15T15:03:52;14.30;87.60
16060;DHT22;8134;49.552;7.632;2023-04-15T15:06:19;14.30;88.10
16060;DHT22;8134;49.552;7.632;2023-04-15T15:08:45;14.10;89.00
16060;DHT22;8134;49.552;7.632;2023-04-15T15:11:10;14.10;89.60
16060;DHT22;8134;49.552;7.632;2023-04-15T15:13:36;14.10;90.30
16060;DHT22;8134;49.552;7.632;2023-04-15T15:16:01;14.10;90.40
16060;DHT22;8134;49.552;7.632;2023-04-15T15:18:27;13.90;91.20
16060;DHT22;8134;49.552;7.632;2023-04-15T15:20:52;13.90;92.00
16060;DHT22;8134;49.552;7.632;2023-04-15T15:23:18;13.90;92.10
16060;DHT22;8134;49.552;7.632;2023-04-15T15:25:44;13.90;92.60
16060;DHT22;8134;49.552;7.632;2023-04-15T15:28:10;13.80;92.70
16060;DHT22;8134;49.552;7.632;2023-04-15T15:30:35;13.80;92.90
16060;DHT22;8134;49.552;7.632;2023-04-15T15:33:01;13.90;92.70
16060;DHT22;8134;49.552;7.632;2023-04-15T15:35:26;13.90;93.10
16060;DHT22;8134;49.552;7.632;2023-04-15T15:37:52;13.90;93.00
16060;DHT22;8134;49.552;7.632;2023-04-15T15:40:17;13.90;92.80
16060;DHT22;8134;49.552;7.632;2023-04-15T15:42:43;13.80;93.10
16060;DHT22;8134;49.552;7.632;2023-04-15T15:45:09;13.80;92.90
16060;DHT22;8134;49.552;7.632;2023-04-15T15:47:34;13.70;92.80
16060;DHT22;8134;49.552;7.632;2023-04-15T15:50:00;13.90;92.60
16060;DHT22;8134;49.552;7.632;2023-04-15T15:52:25;13.70;92.80
16060;DHT22;8134;49.552;7.632;2023-04-15T15:54:51;13.70;93.00
16060;DHT22;8134;49.552;7.632;2023-04-15T15:57:16;13.70;93.30
16060;DHT22;8134;49.552;7.632;2023-04-15T15:59:42;13.60;93.20
16060;DHT22;8134;49.552;7.632;2023-04-15T16:02:09;13.60;93.30
16060;DHT22;8134;49.552;7.632;2023-04-15T16:04:35;13.70;94.00
16060;DHT22;8134;49.552;7.632;2023-04-15T16:07:01;13.70;94.50
16060;DHT22;8134;49.552;7.632;2023-04-15T16:09:26;13.80;94.40
16060;DHT22;8134;49.552;7.632;2023-04-15T16:11:51;13.80;95.00
16060;DHT22;8134;49.552;7.632;2023-04-15T16:14:17;13.70;95.40
16060;DHT22;8134;49.552;7.632;2023-04-15T16:16:42;13.80;95.90
16060;DHT22;8134;49.552;7.632;2023-04-15T16:19:08;13.70;95.10
16060;DHT22;8134;49.552;7.632;2023-04-15T16:21:34;13.60;95.70
16060;DHT22;8134;49.552;7.632;2023-04-15T16:24:00;13.50;95.90
16060;DHT22;8134;49.552;7.632;2023-04-15T16:26:25;13.20;96.20
16060;DHT22;8134;49.552;7.632;2023-04-15T16:28:51;13.10;96.20
16060;DHT22;8134;49.552;7.632;2023-04-15T16:31:16;13.00;96.50
16060;DHT22;8134;49.552;7.632;2023-04-15T16:33:42;13.00;97.80
16060;DHT22;8134;49.552;7.632;2023-04-15T16:36:07;12.90;97.60
16060;DHT22;8134;49.552;7.632;2023-04-15T16:38:33;12.90;98.10
16060;DHT22;8134;49.552;7.632;2023-04-15T16:40:59;12.90;98.00
16060;DHT22;8134;49.552;7.632;2023-04-15T16:43:25;12.90;98.50
16060;DHT22;8134;49.552;7.632;2023-04-15T16:45:50;12.70;99.20
16060;DHT22;8134;49.552;7.632;2023-04-15T16:48:16;12.60;99.90
16060;DHT22;8134;49.552;7.632;2023-04-15T16:50:42;12.60;99.90
16060;DHT22;8134;49.552;7.632;2023-04-15T16:53:07;12.60;99.90
16060;DHT22;8134;49.552;7.632;2023-04-15T16:55:33;12.60;99.90
16060;DHT22;8134;49.552;7.632;2023-04-15T16:57:58;12.50;99.90
16060;DHT22;8134;49.552;7.632;2023-04-15T17:00:24;12.50;99.90
16060;DHT22;8134;49.552;7.632;2023-04-15T17:02:49;12.40;99.90
16060;DHT22;8134;49.552;7.632;2023-04-15T17:05:15;12.40;99.90
16060;DHT22;8134;49.552;7.632;2023-04-15T17:07:40;12.40;99.90
16060;DHT22;8134;49.552;7.632;2023-04-15T17:10:06;12.30;99.90
16060;DHT22;8134;49.552;7.632;2023-04-15T17:12:32;12.20;99.90
16060;DHT22;8134;49.552;7.632;2023-04-15T17:14:57;12.20;99.90
16060;DHT22;8134;49.552;7.632;2023-04-15T17:17:22;12.20;99.90
16060;DHT22;8134;49.552;7.632;2023-04-15T17:19:48;12.30;99.90
16060;DHT22;8134;49.552;7.632;2023-04-15T17:22:13;12.40;99.90
16060;DHT22;8134;49.552;7.632;2023-04-15T17:24:39;12.50;99.90
16060;DHT22;8134;49.552;7.632;2023-04-15T17:27:05;12.50;99.90
16060;DHT22;8134;49.552;7.632;2023-04-15T17:29:31;12.30;99.90
16060;DHT22;8134;49.552;7.632;2023-04-15T17:31:57;12.40;99.90
16060;DHT22;8134;49.552;7.632;2023-04-15T17:34:22;12.30;99.90
16060;DHT22;8134;49.552;7.632;2023-04-15T17:36:48;12.40;99.90
16060;DHT22;8134;49.552;7.632;2023-04-15T17:39:15;12.30;99.90
16060;DHT22;8134;49.552;7.632;2023-04-15T17:41:41;12.40;99.90
16060;DHT22;8134;49.552;7.632;2023-04-15T17:44:07;12.30;99.90
16060;DHT22;8134;49.552;7.632;2023-04-15T17:46:32;12.20;99.90
16060;DHT22;8134;49.552;7.632;2023-04-15T17:48:58;12.20;99.90
16060;DHT22;8134;49.552;7.632;2023-04-15T17:51:23;12.20;99.90
16060;DHT22;8134;49.552;7.632;2023-04-15T17:53:49;12.00;99.90
16060;DHT22;8134;49.552;7.632;2023-04-15T17:56:14;11.90;99.90
16060;DHT22;8134;49.552;7.632;2023-04-15T17:58:40;11.70;99.90
16060;DHT22;8134;49.552;7.632;2023-04-15T18:01:05;11.60;99.90
16060;DHT22;8134;49.552;7.632;2023-04-15T18:03:31;11.60;99.90
16060;DHT22;8134;49.552;7.632;2023-04-15T18:05:57;11.60;99.90
16060;DHT22;8134;49.552;7.632;2023-04-15T18:08:22;11.60;99.90
16060;DHT22;8134;49.552;7.632;2023-04-15T18:10:48;11.70;99.90
16060;DHT22;8134;49.552;7.632;2023-04-15T18:13:13;11.60;99.90
16060;DHT22;8134;49.552;7.632;2023-04-15T18:15:39;11.80;99.90
16060;DHT22;8134;49.552;7.632;2023-04-15T18:18:04;11.80;99.90
16060;DHT22;8134;49.552;7.632;2023-04-15T18:20:30;11.80;99.90
16060;DHT22;8134;49.552;7.632;2023-04-15T18:22:57;11.90;99.90
16060;DHT22;8134;49.552;7.632;2023-04-15T18:25:23;11.80;99.90
16060;DHT22;8134;49.552;7.632;2023-04-15T18:27:48;11.70;99.90
16060;DHT22;8134;49.552;7.632;2023-04-15T18:30:14;11.60;99.90
16060;DHT22;8134;49.552;7.632;2023-04-15T18:32:39;11.60;99.90
16060;DHT22;8134;49.552;7.632;2023-04-15T18:35:05;11.60;99.90
16060;DHT22;8134;49.552;7.632;2023-04-15T18:37:31;11.60;99.90
16060;DHT22;8134;49.552;7.632;2023-04-15T18:39:57;11.60;99.90
16060;DHT22;8134;49.552;7.632;2023-04-15T18:42:23;11.70;99.90
16060;DHT22;8134;49.552;7.632;2023-04-15T18:44:48;11.70;99.90
16060;DHT22;8134;49.552;7.632;2023-04-15T18:47:14;11.80;99.90
16060;DHT22;8134;49.552;7.632;2023-04-15T18:49:40;11.80;99.90
16060;DHT22;8134;49.552;7.632;2023-04-15T18:52:06;11.70;99.90
16060;DHT22;8134;49.552;7.632;2023-04-15T18:54:32;11.70;99.90
16060;DHT22;8134;49.552;7.632;2023-04-15T18:56:57;11.60;99.90
16060;DHT22;8134;49.552;7.632;2023-04-15T18:59:23;11.70;99.90
16060;DHT22;8134;49.552;7.632;2023-04-15T19:01:49;11.40;99.90
16060;DHT22;8134;49.552;7.632;2023-04-15T19:04:15;11.50;99.90
16060;DHT22;8134;49.552;7.632;2023-04-15T19:06:40;11.60;99.90
16060;DHT22;8134;49.552;7.632;2023-04-15T19:09:06;11.60;99.90
16060;DHT22;8134;49.552;7.632;2023-04-15T19:11:31;11.50;99.90
16060;DHT22;8134;49.552;7.632;2023-04-15T19:13:57;11.50;99.90
16060;DHT22;8134;49.552;7.632;2023-04-15T19:16:22;11.60;99.90
16060;DHT22;8134;49.552;7.632;2023-04-15T19:18:48;11.50;99.90
16060;DHT22;8134;49.552;7.632;2023-04-15T19:21:13;11.50;99.90
16060;DHT22;8134;49.552;7.632;2023-04-15T19:23:39;11.50;99.90
16060;DHT22;8134;49.552;7.632;2023-04-15T19:26:07;11.50;99.90
16060;DHT22;8134;49.552;7.632;2023-04-15T19:28:32;11.60;99.90
16060;DHT22;8134;49.552;7.632;2023-04-15T19:30:58;11.60;99.90
16060;DHT22;8134;49.552;7.632;2023-04-15T19:33:23;11.60;99.90
16060;DHT22;8134;49.552;7.632;2023-04-15T19:35:51;11.50;99.90
16060;DHT22;8134;49.552;7.632;2023-04-15T19:38:17;11.50;99.90
16060;DHT22;8134;49.552;7.632;2023-04-15T19:40:42;11.30;99.90
16060;DHT22;8134;49.552;7.632;2023-04-15T19:43:08;11.30;99.90
16060;DHT22;8134;49.552;7.632;2023-04-15T19:45:33;11.20;99.90
16060;DHT22;8134;49.552;7.632;2023-04-15T19:47:59;11.30;99.90
16060;DHT22;8134;49.552;7.632;2023-04-15T19:50:25;11.30;99.90
16060;DHT22;8134;49.552;7.632;2023-04-15T19:52:52;11.40;99.90
16060;DHT22;8134;49.552;7.632;2023-04-15T19:55:17;11.30;99.90
16060;DHT22;8134;49.552;7.632;2023-04-15T19:57:43;11.30;99.90
16060;DHT22;8134;49.552;7.632;2023-04-15T20:00:09;11.20;99.90
16060;DHT22;8134;49.552;7.632;2023-04-15T20:02:34;11.00;99.90
16060;DHT22;8134;49.552;7.632;2023-04-15T20:05:00;11.00;99.90
